< < Back
Terminal Aerodrome Forecast


Current Version              Previous Versions:   1  2  3  4  5  6  7  8  9  

Terminal Aerodrome Forecast

626
FTUS42 KCAE 051500 AAA
TAFAGS
TAF AMD
KAGS 051503Z 0515/0612 VRB04KT P6SM SKC
     FM052000 12010KT P6SM SCT050
     FM060100 13003KT P6SM SKC=



Latest METAR

763
SAUS70 KWBC 051500 RRA
MTRAGS
METAR KAGS 051453Z VRB03KT 10SM CLR 23/14 A3034 RMK AO2 SLP272 T02330139
50000


USA.gov is the U.S. government's official web portal to all federal, state and local government web resources and services.